首页
METAR-TAF:

METAR-TAF

机场 :

马略卡岛帕尔马机场

帕爾馬, 西班牙

纬度: 39-33N, 经度: 002-44E, 海拔: 4米

当前天气观测

该预报发布于35分钟前的13:00 UTC
风速13节,风向东转东北
温度 18°C
湿度 73%
气压 1013 hPa
能见度10公里或以上
少量云层高于2000英尺
多云层高于3200英尺

METAR: LEPA 171300Z 06013KT 9999 FEW020 BKN032 18/13 Q1013 NOSIG

时间: 14:35 (13:35 UTC)

预报

该预报发布于1小时和9分钟前的12:26 UTC
预报有效从17日的 12点(UTC)到 18日的 12点(UTC)
风速8节,风向东北
能见度10公里或以上
少量云层高于2500英尺
短暂存在
从 17日的 12点(UTC)到 18日的 12点(UTC)
少量云层高于2500英尺, 塔状积云.
成为
从 17日的 18点(UTC)到 17日的 20点(UTC)
风速3节,风向多变
成为
从 18日的 10点(UTC)到 18日的 12点(UTC)
风速10节,风向

TAF: LEPA 171226Z 1712/1812 05008KT 9999 FEW025 TX19/1712Z TN09/1806Z TEMPO 1712/1812 FEW025TCU BECMG 1718/1720 VRB03KT BECMG 1810/1812 09010KT

超过4000个机场的气象观测和天气预报(METAR&TAF报告)。

可查询的气象台以黄色和红色小点在地图上表示。

将鼠标移到小点上方,可查看气象台名称。

然后点击查看天气观测和预报。

如需切换地图:点击带黑十字的绿色按钮放大地图;点击带横线的绿色按钮缩小地图;或者点击绿色箭头查看邻近地区的地图。


METAR-TAF: